createdAt,value
2023-01-05T00:03:08.414Z,1003.84
2023-01-05T00:23:07.318Z,1003.969
2023-01-05T00:43:08.134Z,1003.946
2023-01-05T01:03:09.088Z,1004.18
2023-01-05T01:23:07.943Z,1004.279
2023-01-05T01:43:07.785Z,1004.419
2023-01-05T02:03:08.480Z,1004.57
2023-01-05T02:43:07.918Z,1004.516
2023-01-05T03:03:09.213Z,1004.608
2023-01-05T03:23:07.223Z,1004.836
2023-01-05T03:43:08.061Z,1005.036
2023-01-05T04:03:09.268Z,1005.132
2023-01-05T04:23:08.209Z,1005.296
2023-01-05T04:43:08.165Z,1005.364
2023-01-05T05:03:09.605Z,1005.522
2023-01-05T05:23:07.659Z,1005.691
2023-01-05T05:43:07.923Z,1005.828
2023-01-05T06:03:09.564Z,1006.03
2023-01-05T06:23:07.473Z,1006.326
2023-01-05T06:43:07.438Z,1006.58
2023-01-05T07:03:08.265Z,1006.759
2023-01-05T07:23:08.104Z,1007.162
2023-01-05T07:43:08.183Z,1007.343
2023-01-05T08:03:09.062Z,1007.585
2023-01-05T08:23:07.845Z,1007.847
2023-01-05T08:43:07.868Z,1008.031
2023-01-05T09:03:09.128Z,1008.185
2023-01-05T09:23:08.089Z,1008.441
2023-01-05T09:43:07.942Z,1008.705
2023-01-05T10:03:10.917Z,1009.009
2023-01-05T10:23:07.892Z,1009.123
2023-01-05T10:43:07.791Z,1009.155
2023-01-05T11:03:08.689Z,1009.23
2023-01-05T11:23:07.431Z,1009.333
2023-01-05T11:43:07.445Z,1009.408
2023-01-05T12:03:08.939Z,1009.572
2023-01-05T12:23:07.893Z,1009.689
2023-01-05T12:43:07.777Z,1009.66
2023-01-05T13:03:09.054Z,1009.851
2023-01-05T13:23:07.944Z,1009.984
2023-01-05T14:03:08.662Z,1010.295
2023-01-05T14:23:07.457Z,1010.608
2023-01-05T14:43:07.596Z,1010.686
2023-01-05T15:03:08.693Z,1010.828
2023-01-05T15:23:07.576Z,1010.735
2023-01-05T15:43:07.649Z,1010.647
2023-01-05T16:03:08.666Z,1010.821
2023-01-05T16:23:09.861Z,1010.981
2023-01-05T16:43:07.865Z,1010.924
2023-01-05T17:03:08.873Z,1011.095
2023-01-05T17:23:07.674Z,1011.23
2023-01-05T17:43:07.760Z,1011.134
2023-01-05T18:03:08.726Z,1010.945
2023-01-05T18:43:07.660Z,1010.953
2023-01-05T19:03:08.632Z,1010.921
2023-01-05T19:23:07.475Z,1010.911
2023-01-05T19:43:07.626Z,1010.695
2023-01-05T20:03:08.886Z,1010.6
2023-01-05T20:23:07.812Z,1010.571
2023-01-05T20:43:07.951Z,1010.319
2023-01-05T21:03:09.290Z,1010.376
2023-01-05T21:23:07.413Z,1010.236
2023-01-05T21:43:07.611Z,1010.07
2023-01-05T22:03:08.545Z,1009.958
2023-01-05T22:23:07.356Z,1009.759
2023-01-05T22:43:07.397Z,1009.738
2023-01-05T23:03:08.532Z,1009.707
2023-01-05T23:23:07.314Z,1009.735
2023-01-05T23:43:08.168Z,1009.611
